createdAt,value
2023-05-19T00:00:41.584Z,174.46
2023-05-19T00:01:41.523Z,171.91
2023-05-19T00:02:41.652Z,186.94
2023-05-19T00:03:41.633Z,195.54
2023-05-19T00:04:41.648Z,202.56
2023-05-19T00:05:41.751Z,205.47
2023-05-19T00:06:41.702Z,190.64
2023-05-19T00:07:41.725Z,199.22
2023-05-19T00:08:41.745Z,201.97
2023-05-19T00:09:41.773Z,197.93
2023-05-19T00:10:41.833Z,186.01
2023-05-19T00:11:41.908Z,193.49
2023-05-19T00:12:41.986Z,212.62
2023-05-19T00:13:41.994Z,196.07
2023-05-19T00:14:42.003Z,183.27
2023-05-19T00:15:42.048Z,176.90
2023-05-19T00:16:42.025Z,191.30
2023-05-19T00:17:42.139Z,184.94
2023-05-19T00:18:42.159Z,172.92
2023-05-19T00:19:42.170Z,174.64
2023-05-19T00:20:42.249Z,187.74
2023-05-19T00:21:42.315Z,196.50
2023-05-19T00:22:42.377Z,205.40
2023-05-19T00:23:42.436Z,199.99
2023-05-19T00:24:42.489Z,216.27
2023-05-19T00:25:42.537Z,224.73
2023-05-19T00:26:42.651Z,228.58
2023-05-19T00:27:42.686Z,232.64
2023-05-19T00:28:42.736Z,247.09
2023-05-19T00:29:42.833Z,243.93
2023-05-19T00:30:42.879Z,208.44
2023-05-19T00:31:42.929Z,223.64
2023-05-19T00:32:42.997Z,233.94
2023-05-19T00:33:43.020Z,256.46
2023-05-19T00:34:43.049Z,250.00
2023-05-19T00:35:43.201Z,234.66
2023-05-19T00:36:43.206Z,253.70
2023-05-19T00:37:43.268Z,234.03
2023-05-19T00:38:43.299Z,218.09
2023-05-19T00:39:43.375Z,220.17
2023-05-19T00:40:43.436Z,225.56
2023-05-19T00:41:43.458Z,233.48
2023-05-19T00:42:43.526Z,218.11
2023-05-19T00:43:43.580Z,213.17
2023-05-19T00:44:43.640Z,216.80
2023-05-19T00:45:43.710Z,221.41
2023-05-19T00:46:43.819Z,216.75
2023-05-19T00:47:43.854Z,231.19
2023-05-19T00:48:43.824Z,225.23
2023-05-19T00:49:43.826Z,221.45
2023-05-19T00:50:43.874Z,241.05
2023-05-19T00:51:43.871Z,250.00
2023-05-19T00:52:43.908Z,241.47
2023-05-19T00:53:43.974Z,233.62
2023-05-19T00:54:44.020Z,231.97
2023-05-19T00:55:44.095Z,248.39
2023-05-19T00:56:44.140Z,250.00
2023-05-19T00:57:44.147Z,247.04
2023-05-19T00:58:44.189Z,236.38
2023-05-19T00:59:44.236Z,248.11
2023-05-19T01:00:44.292Z,253.83
2023-05-19T01:01:44.311Z,242.46
2023-05-19T01:02:44.390Z,240.80
2023-05-19T01:03:44.487Z,236.22
2023-05-19T01:04:44.417Z,237.58
2023-05-19T01:05:44.454Z,225.94
2023-05-19T01:06:44.454Z,217.77
2023-05-19T01:07:44.475Z,219.85
2023-05-19T01:08:44.454Z,216.54
2023-05-19T01:09:44.433Z,219.68
2023-05-19T01:10:44.485Z,192.49
2023-05-19T01:11:44.563Z,201.45
2023-05-19T01:12:44.554Z,205.26
2023-05-19T01:13:44.520Z,204.93
2023-05-19T01:14:44.514Z,204.53
2023-05-19T01:15:44.550Z,206.27
2023-05-19T01:16:44.597Z,209.44
2023-05-19T01:17:44.540Z,227.68
2023-05-19T01:18:44.612Z,241.37
2023-05-19T01:19:44.565Z,238.49
2023-05-19T01:20:44.568Z,235.87
2023-05-19T01:21:44.680Z,237.28
2023-05-19T01:22:44.569Z,238.16
2023-05-19T01:23:44.577Z,209.29
2023-05-19T01:24:44.609Z,194.54
2023-05-19T01:25:44.660Z,201.85
2023-05-19T01:26:44.605Z,220.85
2023-05-19T01:27:44.624Z,223.62
2023-05-19T01:28:44.582Z,223.90
2023-05-19T01:29:44.574Z,211.98
2023-05-19T01:30:44.667Z,194.95
2023-05-19T01:31:44.610Z,191.36
2023-05-19T01:32:44.609Z,198.90
2023-05-19T01:33:44.628Z,205.78
2023-05-19T01:34:44.613Z,202.97
2023-05-19T01:35:44.623Z,195.16
2023-05-19T01:36:44.701Z,219.44
2023-05-19T01:37:44.681Z,233.99
2023-05-19T01:38:44.686Z,233.26
2023-05-19T01:39:44.737Z,237.14
2023-05-19T01:40:44.730Z,243.71
2023-05-19T01:41:44.725Z,250.00
2023-05-19T01:42:44.779Z,246.69
2023-05-19T01:43:44.780Z,233.20
2023-05-19T01:44:44.745Z,221.92
2023-05-19T01:45:44.797Z,237.41
2023-05-19T01:46:44.815Z,226.83
2023-05-19T01:47:44.841Z,224.22
2023-05-19T01:48:44.811Z,223.23
2023-05-19T01:49:44.824Z,233.78
2023-05-19T01:50:44.829Z,230.30
2023-05-19T01:51:44.831Z,220.89
2023-05-19T01:52:44.855Z,237.06
2023-05-19T01:53:44.867Z,241.90
2023-05-19T01:54:45.085Z,250.00
2023-05-19T01:55:44.899Z,245.04
2023-05-19T01:56:44.883Z,246.78
2023-05-19T01:57:44.868Z,248.75
2023-05-19T01:58:44.868Z,244.84
2023-05-19T01:59:44.902Z,248.87
2023-05-19T02:00:44.928Z,250.00
2023-05-19T02:01:45.086Z,249.13
2023-05-19T02:02:44.987Z,247.97
2023-05-19T02:03:44.923Z,250.00
2023-05-19T02:04:45.008Z,245.52
2023-05-19T02:05:44.937Z,241.72
2023-05-19T02:06:44.938Z,241.85
2023-05-19T02:07:45.015Z,244.78
2023-05-19T02:08:44.920Z,246.01
2023-05-19T02:09:44.972Z,232.91
2023-05-19T02:10:45.009Z,230.56
2023-05-19T02:11:44.994Z,226.44
2023-05-19T02:12:45.012Z,235.67
2023-05-19T02:13:44.997Z,250.60
2023-05-19T02:14:45.031Z,250.00
2023-05-19T02:15:45.056Z,250.00
2023-05-19T02:16:45.132Z,246.06
2023-05-19T02:17:45.120Z,239.25
2023-05-19T02:18:45.249Z,230.34
2023-05-19T02:19:45.140Z,229.84
2023-05-19T02:20:45.184Z,239.59
2023-05-19T02:21:45.234Z,242.70
2023-05-19T02:22:45.239Z,248.11
2023-05-19T02:23:45.316Z,250.00
2023-05-19T02:24:45.297Z,248.28
2023-05-19T02:25:45.342Z,231.89
2023-05-19T02:26:45.386Z,228.01
2023-05-19T02:27:45.378Z,230.32
2023-05-19T02:28:45.425Z,243.81
2023-05-19T02:29:45.430Z,241.97
2023-05-19T02:30:45.494Z,245.81
2023-05-19T02:31:45.578Z,250.00
2023-05-19T02:32:45.567Z,247.58
2023-05-19T02:33:45.598Z,250.00
2023-05-19T02:34:45.704Z,250.00
2023-05-19T02:35:45.673Z,250.00
2023-05-19T02:36:45.691Z,261.59
2023-05-19T02:37:45.733Z,256.23
2023-05-19T02:38:45.788Z,250.00
2023-05-19T02:39:45.824Z,249.88
2023-05-19T02:40:45.877Z,250.02
2023-05-19T02:41:45.911Z,247.34
2023-05-19T02:42:45.950Z,246.52
2023-05-19T02:43:46.001Z,248.01
2023-05-19T02:44:46.026Z,249.71
2023-05-19T02:45:46.101Z,246.45
2023-05-19T02:46:46.232Z,246.58
2023-05-19T02:47:46.318Z,240.27
2023-05-19T02:48:46.251Z,227.12
2023-05-19T02:49:46.289Z,220.57
2023-05-19T02:50:46.371Z,225.70
2023-05-19T02:51:46.416Z,223.21
2023-05-19T02:52:46.475Z,216.07
2023-05-19T02:53:46.475Z,220.71
2023-05-19T02:54:46.523Z,226.97
2023-05-19T02:55:46.598Z,216.68
2023-05-19T02:56:46.594Z,222.11
2023-05-19T02:57:46.659Z,219.40
2023-05-19T02:58:46.702Z,220.34
2023-05-19T02:59:46.777Z,215.97
2023-05-19T03:00:46.801Z,218.00
2023-05-19T03:01:46.907Z,221.79
2023-05-19T03:02:47.073Z,221.24
2023-05-19T03:03:47.097Z,222.24
2023-05-19T03:04:47.023Z,220.28
2023-05-19T03:05:47.110Z,219.31
2023-05-19T03:06:47.118Z,217.42
2023-05-19T03:07:47.183Z,218.18
2023-05-19T03:08:47.235Z,230.89
2023-05-19T03:09:47.323Z,239.79
2023-05-19T03:10:47.361Z,229.27
2023-05-19T03:11:47.425Z,234.30
2023-05-19T03:12:47.420Z,225.19
2023-05-19T03:13:47.478Z,219.19
2023-05-19T03:14:47.565Z,215.30
2023-05-19T03:15:47.672Z,219.59
2023-05-19T03:16:47.839Z,224.65
2023-05-19T03:17:47.833Z,225.18
2023-05-19T03:18:47.877Z,224.56
2023-05-19T03:19:47.823Z,220.32
2023-05-19T03:20:47.904Z,215.40
2023-05-19T03:21:47.958Z,212.53
2023-05-19T03:22:48.013Z,211.23
2023-05-19T03:23:48.059Z,202.56
2023-05-19T03:24:48.122Z,208.04
2023-05-19T03:25:48.184Z,203.04
2023-05-19T03:26:48.221Z,201.08
2023-05-19T03:27:48.299Z,210.06
2023-05-19T03:28:48.359Z,210.36
2023-05-19T03:29:48.431Z,211.04
2023-05-19T03:30:48.491Z,214.83
2023-05-19T03:31:48.535Z,222.45
2023-05-19T03:32:48.684Z,229.85
2023-05-19T03:33:48.635Z,233.80
2023-05-19T03:34:48.697Z,229.09
2023-05-19T03:35:48.779Z,231.25
2023-05-19T03:36:48.834Z,231.36
2023-05-19T03:37:48.898Z,230.78
2023-05-19T03:38:48.963Z,227.91
2023-05-19T03:39:48.925Z,231.92
2023-05-19T03:40:49.016Z,236.48
2023-05-19T03:41:49.064Z,232.98
2023-05-19T03:42:49.070Z,229.91
2023-05-19T03:43:49.128Z,225.76
2023-05-19T03:44:49.173Z,226.07
2023-05-19T03:45:49.288Z,230.16
2023-05-19T03:46:49.298Z,235.44
2023-05-19T03:47:49.379Z,242.21
2023-05-19T03:48:49.355Z,243.05
2023-05-19T03:49:49.369Z,238.07
2023-05-19T03:50:49.388Z,237.21
2023-05-19T03:51:49.380Z,238.53
2023-05-19T03:52:49.403Z,238.39
2023-05-19T03:53:49.428Z,235.89
2023-05-19T03:54:49.427Z,236.69
2023-05-19T03:55:49.404Z,241.53
2023-05-19T03:56:49.463Z,242.19
2023-05-19T03:57:49.419Z,246.80
2023-05-19T03:58:49.460Z,249.97
2023-05-19T03:59:49.492Z,250.00
2023-05-19T04:00:49.554Z,249.94
2023-05-19T04:01:49.558Z,243.28
2023-05-19T04:02:49.725Z,242.15
2023-05-19T04:03:49.581Z,246.50
2023-05-19T04:04:49.665Z,248.65
2023-05-19T04:05:49.597Z,245.15
2023-05-19T04:06:49.586Z,246.63
2023-05-19T04:07:49.619Z,247.76
2023-05-19T04:08:49.610Z,246.90
2023-05-19T04:09:49.682Z,243.25
2023-05-19T04:10:49.696Z,243.19
2023-05-19T04:11:49.690Z,246.42
2023-05-19T04:12:50.020Z,241.52
2023-05-19T04:13:49.680Z,237.23
2023-05-19T04:14:49.690Z,236.96
2023-05-19T04:15:49.723Z,241.43
2023-05-19T04:16:49.745Z,245.53
2023-05-19T04:17:49.735Z,248.87
2023-05-19T04:18:49.816Z,248.03
2023-05-19T04:19:49.784Z,249.58
2023-05-19T04:20:49.851Z,250.00
2023-05-19T04:21:49.912Z,251.49
2023-05-19T04:22:49.943Z,249.42
2023-05-19T04:23:50.027Z,248.84
2023-05-19T04:24:50.037Z,236.16
2023-05-19T04:25:50.130Z,230.61
2023-05-19T04:26:50.144Z,224.82
2023-05-19T04:27:50.174Z,214.34
2023-05-19T04:28:50.177Z,216.31
2023-05-19T04:29:50.197Z,215.92
2023-05-19T04:30:50.234Z,207.74
2023-05-19T04:31:50.208Z,202.56
2023-05-19T04:32:50.291Z,208.03
2023-05-19T04:33:50.197Z,205.91
2023-05-19T04:34:50.254Z,210.76
2023-05-19T04:35:50.331Z,223.62
2023-05-19T04:36:52.457Z,221.95
2023-05-19T04:37:50.266Z,217.23
2023-05-19T04:38:50.245Z,205.88
2023-05-19T04:39:50.239Z,182.67
2023-05-19T04:40:50.451Z,179.28
2023-05-19T04:41:50.249Z,173.13
2023-05-19T04:42:50.220Z,170.82
2023-05-19T04:43:50.252Z,169.32
2023-05-19T04:44:50.201Z,174.41
2023-05-19T04:45:50.260Z,176.87
2023-05-19T04:46:50.330Z,182.54
2023-05-19T04:47:50.203Z,182.40
2023-05-19T04:48:51.389Z,193.23
2023-05-19T04:49:50.221Z,206.03
2023-05-19T04:50:50.190Z,209.24
2023-05-19T04:51:50.161Z,210.07
2023-05-19T04:52:50.165Z,207.98
2023-05-19T04:53:50.158Z,207.86
2023-05-19T04:54:50.209Z,213.83
2023-05-19T04:55:50.143Z,215.61
2023-05-19T04:56:50.129Z,214.46
2023-05-19T04:57:50.132Z,203.31
2023-05-19T04:58:50.088Z,201.72
2023-05-19T04:59:50.065Z,200.33
2023-05-19T05:02:09.898Z,25.00
2023-05-19T05:03:09.923Z,25.00
2023-05-19T05:04:09.904Z,25.00
2023-05-19T05:05:09.843Z,25.00
2023-05-19T05:06:09.837Z,25.00
2023-05-19T05:07:09.794Z,35.83
2023-05-19T05:08:09.841Z,26.88
2023-05-19T05:09:09.797Z,41.76
2023-05-19T05:10:09.821Z,26.99
2023-05-19T05:11:09.809Z,18.98
2023-05-19T05:12:09.873Z,18.98
2023-05-19T05:13:11.735Z,27.01
2023-05-19T05:14:09.798Z,18.09
2023-05-19T05:15:09.730Z,25.09
2023-05-19T05:16:09.851Z,25.89
2023-05-19T05:17:09.714Z,40.48
2023-05-19T05:18:09.770Z,25.00
2023-05-19T05:19:09.800Z,23.29
2023-05-19T05:20:09.749Z,24.84
2023-05-19T05:21:09.848Z,39.31
2023-05-19T05:22:09.834Z,44.27
2023-05-19T05:23:09.903Z,53.82
2023-05-19T05:24:09.880Z,44.94
2023-05-19T05:25:09.920Z,32.94
2023-05-19T05:26:09.961Z,25.47
2023-05-19T05:27:09.965Z,27.90
2023-05-19T05:28:09.967Z,29.20
2023-05-19T05:29:09.981Z,34.99
2023-05-19T05:30:09.989Z,31.26
2023-05-19T05:31:10.098Z,41.17
2023-05-19T05:32:10.063Z,25.18
2023-05-19T05:33:10.212Z,12.07
2023-05-19T05:34:10.120Z,0.00
2023-05-19T05:35:10.129Z,7.22
2023-05-19T05:36:10.137Z,31.89
2023-05-19T05:37:10.198Z,39.75
2023-05-19T05:38:10.144Z,44.52
2023-05-19T05:39:10.210Z,70.51
2023-05-19T05:40:10.250Z,64.70
2023-05-19T05:41:10.232Z,96.74
2023-05-19T05:42:10.226Z,130.61
2023-05-19T05:43:10.284Z,133.95
2023-05-19T05:44:10.296Z,146.53
2023-05-19T05:45:10.329Z,152.70
2023-05-19T05:47:30.304Z,25.00
2023-05-19T05:48:30.251Z,25.00
2023-05-19T05:49:30.240Z,25.00
2023-05-19T05:50:30.220Z,25.00
2023-05-19T05:51:30.234Z,25.00
2023-05-19T05:52:30.206Z,30.48
2023-05-19T05:53:30.215Z,26.02
2023-05-19T05:54:30.191Z,25.78
2023-05-19T05:55:30.349Z,25.00
2023-05-19T05:56:30.183Z,20.08
2023-05-19T05:57:30.180Z,40.22
2023-05-19T05:58:30.177Z,80.41
2023-05-19T05:59:30.165Z,85.81
2023-05-19T06:00:30.419Z,101.82
2023-05-19T06:01:30.144Z,97.40
2023-05-19T06:02:30.235Z,91.78
2023-05-19T06:03:30.218Z,96.44
2023-05-19T06:04:30.180Z,129.49
2023-05-19T06:05:30.293Z,165.12
2023-05-19T06:06:30.205Z,174.14
2023-05-19T06:07:30.248Z,168.48
2023-05-19T06:08:30.260Z,134.10
2023-05-19T06:09:30.371Z,127.53
2023-05-19T06:10:30.439Z,127.83
2023-05-19T06:11:30.364Z,160.88
2023-05-19T06:12:30.349Z,156.15
2023-05-19T06:13:30.452Z,138.17
2023-05-19T06:14:30.427Z,149.54
2023-05-19T06:15:30.541Z,162.18
2023-05-19T06:16:30.550Z,160.81
2023-05-19T06:17:30.523Z,163.01
2023-05-19T06:18:30.592Z,144.50
2023-05-19T06:19:30.594Z,150.06
2023-05-19T06:20:30.731Z,182.81
2023-05-19T06:21:30.937Z,224.48
2023-05-19T06:22:30.575Z,248.66
2023-05-19T06:23:30.639Z,233.45
2023-05-19T06:24:30.743Z,219.47
2023-05-19T06:25:30.920Z,257.34
2023-05-19T06:26:30.854Z,240.78
2023-05-19T06:27:32.567Z,216.15
2023-05-19T06:28:30.767Z,207.40
2023-05-19T06:29:30.763Z,200.77
2023-05-19T06:30:30.942Z,182.50
2023-05-19T06:31:30.832Z,195.36
2023-05-19T06:32:30.827Z,170.08
2023-05-19T06:33:30.811Z,156.75
2023-05-19T06:34:30.803Z,171.88
2023-05-19T06:35:30.890Z,175.23
2023-05-19T06:36:30.732Z,106.61
2023-05-19T06:37:30.728Z,57.55
2023-05-19T06:38:30.724Z,57.06
2023-05-19T06:39:30.739Z,62.64
2023-05-19T06:40:30.934Z,37.28
2023-05-19T06:41:30.745Z,29.36
2023-05-19T06:42:31.887Z,30.63
2023-05-19T06:43:30.667Z,41.66
2023-05-19T06:44:30.669Z,25.06
2023-05-19T06:45:30.685Z,33.47
2023-05-19T06:46:30.708Z,24.99
2023-05-19T06:47:30.767Z,25.00
2023-05-19T06:48:30.706Z,27.09
2023-05-19T06:49:31.927Z,43.84
2023-05-19T06:50:30.685Z,0.00
2023-05-19T06:51:31.687Z,0.00
2023-05-19T06:52:30.601Z,0.00
2023-05-19T06:53:30.631Z,14.20
2023-05-19T06:54:30.551Z,29.03
2023-05-19T06:55:30.647Z,44.83
2023-05-19T06:56:30.632Z,32.71
2023-05-19T06:57:30.557Z,21.79
2023-05-19T06:58:30.666Z,25.68
2023-05-19T06:59:30.555Z,25.00
2023-05-19T07:00:30.554Z,16.94
2023-05-19T07:01:30.667Z,24.76
2023-05-19T07:02:30.643Z,38.32
2023-05-19T07:03:30.698Z,67.06
2023-05-19T07:04:30.574Z,83.24
2023-05-19T07:05:30.503Z,111.88
2023-05-19T07:06:30.490Z,85.19
2023-05-19T07:07:30.537Z,37.43
2023-05-19T07:08:30.485Z,25.00
2023-05-19T07:09:30.510Z,27.41
2023-05-19T07:10:30.771Z,30.08
2023-05-19T07:11:30.494Z,47.24
2023-05-19T07:12:30.577Z,43.34
2023-05-19T07:13:30.532Z,33.45
2023-05-19T07:14:30.445Z,50.78
2023-05-19T07:15:30.451Z,67.08
2023-05-19T07:16:30.537Z,63.85
2023-05-19T07:17:30.479Z,65.39
2023-05-19T07:18:30.573Z,77.98
2023-05-19T07:19:30.718Z,96.77
2023-05-19T07:20:30.854Z,94.65
2023-05-19T07:21:30.711Z,53.26
2023-05-19T07:22:30.734Z,39.87
2023-05-19T07:23:30.818Z,35.12
2023-05-19T07:24:30.802Z,31.56
2023-05-19T07:25:30.823Z,23.44
2023-05-19T07:26:31.204Z,21.34
2023-05-19T07:27:30.945Z,29.01
2023-05-19T07:28:30.887Z,16.24
2023-05-19T07:29:30.964Z,18.55
2023-05-19T07:30:31.313Z,24.60
2023-05-19T07:31:31.106Z,25.00
2023-05-19T07:32:31.108Z,23.97
2023-05-19T07:33:31.098Z,25.46
2023-05-19T07:34:31.088Z,27.05
2023-05-19T07:35:31.107Z,33.98
2023-05-19T07:36:31.221Z,43.63
2023-05-19T07:37:31.228Z,48.35
2023-05-19T07:38:31.273Z,44.05
2023-05-19T07:39:31.170Z,58.13
2023-05-19T07:40:31.617Z,58.04
2023-05-19T07:41:31.223Z,61.24
2023-05-19T07:42:31.282Z,82.66
2023-05-19T07:43:31.359Z,53.54
2023-05-19T07:44:31.452Z,58.48
2023-05-19T07:45:31.450Z,22.19
2023-05-19T07:46:31.562Z,18.97
2023-05-19T07:47:31.543Z,27.94
2023-05-19T07:48:31.604Z,31.29
2023-05-19T07:49:31.581Z,28.21
2023-05-19T07:50:31.747Z,25.00
2023-05-19T07:51:31.652Z,29.87
2023-05-19T07:52:31.630Z,39.92
2023-05-19T07:53:31.695Z,54.15
2023-05-19T07:54:31.745Z,63.52
2023-05-19T07:55:31.745Z,72.71
2023-05-19T07:56:31.798Z,73.60
2023-05-19T07:57:31.868Z,67.94
2023-05-19T07:58:31.948Z,84.52
2023-05-19T07:59:31.982Z,90.00
2023-05-19T08:00:32.207Z,85.90
2023-05-19T08:01:32.019Z,84.65
2023-05-19T08:02:32.134Z,76.59
2023-05-19T08:03:32.163Z,84.73
2023-05-19T08:04:31.986Z,72.47
2023-05-19T08:05:32.535Z,84.23
2023-05-19T08:06:32.034Z,86.71
2023-05-19T08:07:32.033Z,94.38
2023-05-19T08:08:32.015Z,101.27
2023-05-19T08:09:32.138Z,107.66
2023-05-19T08:10:32.237Z,112.27
2023-05-19T08:11:32.174Z,105.82
2023-05-19T08:12:32.262Z,87.92
2023-05-19T08:13:32.183Z,74.89
2023-05-19T08:14:32.298Z,81.47
2023-05-19T08:15:32.870Z,95.68
2023-05-19T08:16:32.461Z,98.69
2023-05-19T08:17:32.564Z,102.35
2023-05-19T08:18:32.531Z,75.36
2023-05-19T08:19:32.709Z,67.93
2023-05-19T08:20:32.936Z,48.16
2023-05-19T08:21:32.685Z,48.90
2023-05-19T08:22:32.765Z,61.08
2023-05-19T08:23:32.795Z,59.94
2023-05-19T08:24:32.904Z,39.12
2023-05-19T08:25:32.856Z,25.00
2023-05-19T08:26:34.121Z,26.94
2023-05-19T08:27:32.946Z,24.43
2023-05-19T08:28:32.903Z,26.05
2023-05-19T08:29:32.990Z,25.88
2023-05-19T08:30:33.173Z,36.67
2023-05-19T08:31:33.047Z,47.61
2023-05-19T08:32:33.204Z,45.80
2023-05-19T08:33:33.058Z,39.26
2023-05-19T08:34:33.124Z,39.75
2023-05-19T08:35:33.067Z,46.14
2023-05-19T08:36:33.108Z,28.50
2023-05-19T08:37:34.070Z,23.39
2023-05-19T08:38:33.268Z,31.89
2023-05-19T08:39:33.269Z,33.35
2023-05-19T08:40:33.622Z,26.22
2023-05-19T08:41:33.424Z,31.80
2023-05-19T08:42:33.470Z,31.70
2023-05-19T08:43:33.513Z,29.82
2023-05-19T08:44:33.560Z,37.72
2023-05-19T08:45:33.735Z,50.76
2023-05-19T08:46:33.711Z,42.09
2023-05-19T08:47:33.834Z,40.87
2023-05-19T08:48:33.803Z,32.26
2023-05-19T08:49:33.814Z,26.56
2023-05-19T08:50:34.052Z,14.89
2023-05-19T08:51:33.877Z,19.99
2023-05-19T08:52:33.923Z,45.27
2023-05-19T08:53:34.752Z,55.41
2023-05-19T08:54:33.963Z,60.65
2023-05-19T08:55:34.424Z,47.42
2023-05-19T08:56:34.015Z,46.69
2023-05-19T08:57:33.953Z,43.59
2023-05-19T08:58:34.031Z,36.70
2023-05-19T08:59:34.043Z,33.61
2023-05-19T09:00:34.350Z,42.06
2023-05-19T09:02:34.224Z,46.28
2023-05-19T09:03:34.203Z,39.44
2023-05-19T09:04:34.395Z,38.05
2023-05-19T09:05:34.479Z,51.16
2023-05-19T09:06:34.179Z,66.42
2023-05-19T09:07:34.208Z,60.07
2023-05-19T09:08:34.214Z,51.05
2023-05-19T09:09:34.341Z,53.35
2023-05-19T09:10:34.363Z,64.32
2023-05-19T09:11:34.408Z,75.17
2023-05-19T09:12:34.473Z,76.40
2023-05-19T09:13:34.537Z,55.65
2023-05-19T09:14:34.534Z,63.05
2023-05-19T09:15:34.925Z,55.95
2023-05-19T09:16:34.602Z,31.74
2023-05-19T09:17:34.615Z,31.18
2023-05-19T09:18:34.702Z,35.66
2023-05-19T09:19:34.776Z,42.05
2023-05-19T09:20:34.675Z,43.54
2023-05-19T09:21:34.708Z,51.74
2023-05-19T09:22:34.703Z,47.91
2023-05-19T09:23:34.720Z,39.77
2023-05-19T09:24:34.784Z,42.05
2023-05-19T09:25:35.002Z,42.67
2023-05-19T09:26:34.780Z,50.05
2023-05-19T09:27:34.833Z,57.36
2023-05-19T09:28:34.830Z,47.71
2023-05-19T09:29:34.851Z,40.78
2023-05-19T09:30:34.868Z,35.92
2023-05-19T09:31:34.911Z,22.88
2023-05-19T09:32:34.925Z,26.32
2023-05-19T09:33:34.933Z,34.85
2023-05-19T09:34:34.892Z,40.18
2023-05-19T09:35:35.251Z,40.98
2023-05-19T09:36:34.904Z,43.55
2023-05-19T09:37:34.918Z,50.16
2023-05-19T09:38:35.019Z,37.37
2023-05-19T09:39:35.047Z,36.77
2023-05-19T09:40:35.145Z,28.31
2023-05-19T09:41:35.154Z,39.60
2023-05-19T09:42:35.183Z,68.56
2023-05-19T09:43:35.201Z,68.95
2023-05-19T09:44:35.238Z,61.87
2023-05-19T09:45:35.247Z,47.34
2023-05-19T09:46:35.426Z,37.50
2023-05-19T09:47:35.378Z,48.61
2023-05-19T09:48:35.307Z,42.80
2023-05-19T09:49:35.321Z,34.28
2023-05-19T09:50:35.359Z,38.64
2023-05-19T09:51:35.426Z,43.76
2023-05-19T09:52:35.527Z,30.12
2023-05-19T09:53:35.528Z,26.01
2023-05-19T09:54:35.554Z,40.00
2023-05-19T09:55:35.604Z,27.70
2023-05-19T09:56:35.530Z,41.33
2023-05-19T09:57:35.659Z,48.93
2023-05-19T09:58:35.725Z,54.09
2023-05-19T09:59:35.676Z,57.78
2023-05-19T10:00:35.680Z,55.07
2023-05-19T10:01:35.691Z,31.91
2023-05-19T10:02:35.718Z,40.00
2023-05-19T10:03:35.691Z,29.65
2023-05-19T10:04:35.720Z,41.23
2023-05-19T10:05:35.889Z,37.46
2023-05-19T10:06:35.725Z,37.23
2023-05-19T10:07:35.825Z,29.55
2023-05-19T10:08:35.747Z,27.30
2023-05-19T10:09:35.816Z,13.27
2023-05-19T10:10:35.902Z,8.49
2023-05-19T10:11:35.904Z,19.43
2023-05-19T10:12:35.872Z,34.60
2023-05-19T10:13:35.976Z,40.14
2023-05-19T10:14:35.975Z,31.97
2023-05-19T10:15:40.642Z,40.92
2023-05-19T10:16:37.080Z,41.19
2023-05-19T10:17:35.966Z,41.91
2023-05-19T10:18:37.539Z,46.93
2023-05-19T10:19:36.008Z,46.12
2023-05-19T10:20:35.936Z,46.60
2023-05-19T10:21:35.936Z,34.89
2023-05-19T10:22:35.985Z,30.78
2023-05-19T10:23:35.922Z,37.86
2023-05-19T10:24:35.934Z,37.12
2023-05-19T10:25:35.908Z,49.78
2023-05-19T10:26:35.968Z,50.38
2023-05-19T10:27:36.512Z,64.52
2023-05-19T10:28:35.904Z,63.82
2023-05-19T10:29:35.878Z,40.48
2023-05-19T10:30:35.891Z,36.63
2023-05-19T10:31:35.984Z,56.51
2023-05-19T10:32:35.923Z,64.67
2023-05-19T10:33:35.850Z,68.22
2023-05-19T10:34:35.916Z,64.40
2023-05-19T10:35:36.099Z,68.31
2023-05-19T10:36:35.910Z,80.44
2023-05-19T10:37:35.856Z,94.28
2023-05-19T10:38:35.843Z,99.56
2023-05-19T10:39:35.836Z,100.22
2023-05-19T10:40:35.788Z,88.23
2023-05-19T10:41:35.772Z,86.26
2023-05-19T10:42:35.764Z,80.88
2023-05-19T10:43:35.795Z,89.04
2023-05-19T10:44:35.791Z,101.02
2023-05-19T10:45:36.011Z,81.56
2023-05-19T10:46:35.733Z,90.05
2023-05-19T10:47:35.821Z,80.28
2023-05-19T10:48:35.732Z,74.88
2023-05-19T10:49:35.743Z,76.11
2023-05-19T10:50:35.753Z,85.22
2023-05-19T10:51:35.745Z,85.63
2023-05-19T10:52:35.737Z,95.28
2023-05-19T10:53:35.787Z,95.80
2023-05-19T10:54:35.762Z,99.77
2023-05-19T10:55:35.809Z,86.52
2023-05-19T10:56:35.706Z,79.05
2023-05-19T10:57:35.707Z,86.68
2023-05-19T10:58:35.687Z,81.92
2023-05-19T10:59:35.682Z,88.53
2023-05-19T11:00:35.695Z,94.62
2023-05-19T11:01:35.747Z,104.21
2023-05-19T11:02:35.708Z,116.44
2023-05-19T11:03:35.691Z,109.57
2023-05-19T11:04:35.671Z,94.82
2023-05-19T11:05:35.812Z,85.01
2023-05-19T11:06:35.638Z,89.98
2023-05-19T11:07:35.633Z,104.98
2023-05-19T11:08:35.658Z,83.15
2023-05-19T11:09:40.593Z,91.48
2023-05-19T11:10:36.598Z,90.69
2023-05-19T11:11:35.562Z,82.84
2023-05-19T11:12:35.660Z,79.02
2023-05-19T11:13:36.730Z,74.99
2023-05-19T11:14:35.572Z,77.45
2023-05-19T11:15:35.601Z,68.31
2023-05-19T11:16:35.659Z,84.96
2023-05-19T11:17:35.579Z,86.49
2023-05-19T11:18:35.607Z,84.48
2023-05-19T11:19:35.652Z,77.51
2023-05-19T11:20:35.576Z,83.42
2023-05-19T11:21:35.612Z,74.61
2023-05-19T11:22:36.146Z,74.24
2023-05-19T11:23:35.798Z,70.80
2023-05-19T11:24:35.653Z,73.84
2023-05-19T11:25:35.653Z,79.28
2023-05-19T11:26:35.691Z,96.01
2023-05-19T11:27:35.701Z,94.06
2023-05-19T11:28:35.747Z,86.84
2023-05-19T11:29:35.807Z,86.87
2023-05-19T11:30:35.719Z,87.94
2023-05-19T11:31:35.858Z,80.23
2023-05-19T11:32:35.982Z,81.08
2023-05-19T11:33:35.824Z,92.44
2023-05-19T11:34:35.854Z,90.66
2023-05-19T11:35:36.372Z,91.76
2023-05-19T11:36:35.863Z,98.03
2023-05-19T11:37:35.955Z,98.20
2023-05-19T11:38:35.977Z,98.01
2023-05-19T11:39:36.072Z,107.70
2023-05-19T11:40:36.089Z,113.97
2023-05-19T11:41:36.100Z,102.36
2023-05-19T11:42:36.159Z,90.67
2023-05-19T11:43:36.188Z,100.53
2023-05-19T11:44:36.292Z,102.99
2023-05-19T11:45:36.536Z,102.59
2023-05-19T11:46:36.277Z,107.22
2023-05-19T11:47:47.414Z,89.54
2023-05-19T11:48:37.343Z,80.95
2023-05-19T11:49:36.267Z,83.94
2023-05-19T11:50:36.282Z,91.82
2023-05-19T11:51:36.242Z,89.94
2023-05-19T11:52:36.275Z,83.26
2023-05-19T11:53:36.220Z,51.89
2023-05-19T11:54:36.186Z,55.67
2023-05-19T11:55:36.222Z,56.68
2023-05-19T11:56:36.184Z,76.90
2023-05-19T11:57:36.192Z,90.00
2023-05-19T11:58:36.190Z,88.30
2023-05-19T11:59:37.734Z,83.59
2023-05-19T12:00:36.213Z,69.95
2023-05-19T12:01:36.219Z,75.67
2023-05-19T12:02:36.417Z,69.54
2023-05-19T12:03:36.471Z,72.88
2023-05-19T12:04:36.287Z,82.52
2023-05-19T12:05:39.844Z,71.50
2023-05-19T12:06:37.315Z,71.52
2023-05-19T12:07:36.361Z,68.69
2023-05-19T12:08:36.188Z,70.84
2023-05-19T12:09:36.257Z,56.13
2023-05-19T12:10:36.236Z,45.17
2023-05-19T12:11:36.206Z,33.34
2023-05-19T12:12:36.186Z,32.42
2023-05-19T12:13:36.202Z,26.75
2023-05-19T12:14:36.230Z,25.00
2023-05-19T12:15:36.229Z,33.59
2023-05-19T12:16:36.252Z,38.55
2023-05-19T12:17:36.236Z,24.64
2023-05-19T12:18:36.184Z,30.69
2023-05-19T12:19:36.260Z,28.48
2023-05-19T12:20:36.635Z,30.97
2023-05-19T12:21:36.322Z,26.88
2023-05-19T12:22:36.321Z,28.68
2023-05-19T12:23:36.358Z,23.72
2023-05-19T12:24:36.434Z,24.35
2023-05-19T12:25:36.647Z,31.62
2023-05-19T12:26:36.417Z,45.04
2023-05-19T12:27:36.523Z,52.28
2023-05-19T12:28:36.504Z,59.09
2023-05-19T12:29:36.499Z,47.24
2023-05-19T12:30:36.799Z,49.44
2023-05-19T12:31:36.563Z,42.69
2023-05-19T12:32:36.595Z,47.70
2023-05-19T12:33:36.599Z,50.39
2023-05-19T12:34:36.593Z,40.52
2023-05-19T12:35:36.657Z,48.41
2023-05-19T12:36:36.761Z,49.74
2023-05-19T12:37:36.781Z,42.06
2023-05-19T12:38:36.781Z,38.20
2023-05-19T12:39:36.792Z,17.33
2023-05-19T12:40:37.196Z,19.79
2023-05-19T12:41:36.971Z,33.00
2023-05-19T12:42:36.980Z,33.65
2023-05-19T12:43:36.912Z,34.54
2023-05-19T12:44:36.984Z,32.71
2023-05-19T12:45:37.277Z,27.60